Time;durP1;ratioP1;P1;durP2;ratioP2;P2;SDS_P1;SDS_P2;PMS_P1;PMS_P2;Temp;Humidity;BMP_temperature;BMP_pressure;BME280_temperature;BME280_humidity;BME280_pressure;Samples;Min_cycle;Max_cycle;Signal;HPM_P1;HPM_P2
2021/01/04 00:03:06;;;;;;;16.20;11.68;;;4.00;95.60;;;;;;5007243;28;20033;-43
2021/01/04 00:05:41;;;;;;;18.48;11.77;;;3.90;95.60;;;;;;5007746;28;20481;-43
2021/01/04 00:08:33;;;;;;;17.88;12.00;;;4.00;95.70;;;;;;5007790;28;20474;-43
2021/01/04 00:11:17;;;;;;;17.48;12.60;;;4.00;95.70;;;;;;5007396;28;20087;-43
2021/01/04 00:13:48;;;;;;;15.52;10.93;;;4.00;95.70;;;;;;5007875;28;20097;-41
2021/01/04 00:16:32;;;;;;;15.48;11.55;;;4.00;95.80;;;;;;5007199;28;20083;-41
2021/01/04 00:19:11;;;;;;;22.02;13.68;;;4.00;95.90;;;;;;5007886;28;20109;-43
2021/01/04 00:22:09;;;;;;;18.70;12.25;;;4.00;95.90;;;;;;5006139;28;20053;-44
2021/01/04 00:24:56;;;;;;;19.25;12.70;;;4.00;95.90;;;;;;4966981;28;20132;-43
2021/01/04 00:27:43;;;;;;;19.85;13.25;;;4.00;95.90;;;;;;5007207;28;20448;-43
2021/01/04 00:30:52;;;;;;;16.88;11.75;;;4.00;95.90;;;;;;5007621;28;20488;-43
2021/01/04 00:33:29;;;;;;;19.98;13.63;;;4.00;95.90;;;;;;4906611;29;20035;-42
2021/01/04 00:36:01;;;;;;;21.48;14.23;;;4.00;95.90;;;;;;4908453;29;20073;-43
2021/01/04 00:38:54;;;;;;;19.60;14.02;;;4.00;95.80;;;;;;4968512;28;20041;-43
2021/01/04 00:41:38;;;;;;;18.13;12.43;;;4.10;95.80;;;;;;5006894;28;20046;-42
2021/01/04 00:44:08;;;;;;;18.35;13.45;;;4.10;95.80;;;;;;5007256;28;20030;-42
2021/01/04 00:46:40;;;;;;;18.48;12.65;;;4.00;95.80;;;;;;5006161;28;20657;-43
2021/01/04 00:49:23;;;;;;;20.20;13.80;;;4.10;95.80;;;;;;5007367;28;20504;-43
2021/01/04 00:51:56;;;;;;;18.75;12.75;;;4.10;95.80;;;;;;5006817;28;20026;-43
2021/01/04 00:54:21;;;;;;;17.15;11.95;;;4.10;95.90;;;;;;5006365;28;20221;-42
2021/01/04 00:57:20;;;;;;;18.08;12.45;;;4.10;95.90;;;;;;5007126;28;20638;-42
2021/01/04 01:00:08;;;;;;;18.17;12.35;;;4.10;95.90;;;;;;5006930;28;20037;-43
2021/01/04 01:02:40;;;;;;;19.15;12.30;;;4.10;95.80;;;;;;4993107;28;20034;-42
2021/01/04 01:05:17;;;;;;;17.75;12.02;;;4.10;95.80;;;;;;5006705;28;20453;-43
2021/01/04 01:08:09;;;;;;;19.63;12.98;;;4.10;95.80;;;;;;5006799;28;20073;-43
2021/01/04 01:10:45;;;;;;;23.80;14.68;;;4.10;95.80;;;;;;5006609;28;20037;-43
2021/01/04 01:13:53;;;;;;;17.67;12.93;;;4.10;95.70;;;;;;5006012;28;20113;-41
2021/01/04 01:16:49;;;;;;;17.70;12.82;;;4.10;95.80;;;;;;5006454;28;20575;-42
2021/01/04 01:19:29;;;;;;;16.67;11.43;;;4.10;95.80;;;;;;5006231;28;20033;-43
2021/01/04 01:21:56;;;;;;;20.60;13.65;;;4.10;95.80;;;;;;5006217;28;20041;-43
2021/01/04 01:24:23;;;;;;;15.70;11.85;;;4.10;95.80;;;;;;5006099;28;20026;-43
2021/01/04 01:27:26;;;;;;;20.85;14.20;;;4.10;95.90;;;;;;5006358;28;20030;-42
2021/01/04 01:30:10;;;;;;;;;;;4.10;95.90;;;;;;5006957;28;20041;-43
2021/01/04 01:33:08;;;;;;;21.50;13.18;;;4.10;95.90;;;;;;5006105;28;20730;-44
2021/01/04 01:35:43;;;;;;;17.75;12.00;;;4.00;95.90;;;;;;5005563;28;20038;-44
2021/01/04 01:38:41;;;;;;;18.90;13.07;;;4.10;96.00;;;;;;5006752;28;20026;-43
2021/01/04 01:41:17;;;;;;;14.88;11.32;;;4.00;96.00;;;;;;5006070;28;20033;-42
2021/01/04 01:44:00;;;;;;;15.98;12.00;;;4.10;96.00;;;;;;5006381;28;20030;-42
2021/01/04 01:46:31;;;;;;;14.45;11.25;;;4.00;96.00;;;;;;5005646;28;20064;-42
2021/01/04 01:49:35;;;;;;;16.55;11.88;;;4.10;96.10;;;;;;5005649;28;20131;-42
2021/01/04 01:52:13;;;;;;;15.93;11.27;;;4.10;96.10;;;;;;5006379;28;20440;-42
2021/01/04 01:55:12;;;;;;;15.35;11.40;;;4.10;96.00;;;;;;5006411;28;20133;-43
2021/01/04 01:57:58;;;;;;;16.10;11.80;;;4.10;96.00;;;;;;5006404;28;20018;-42
2021/01/04 02:00:35;;;;;;;14.60;11.38;;;4.00;96.00;;;;;;5005451;28;20754;-42
2021/01/04 02:03:13;;;;;;;16.42;12.02;;;4.00;96.00;;;;;;5005886;28;20112;-43
2021/01/04 02:06:06;;;;;;;16.65;11.68;;;4.10;96.10;;;;;;5006152;28;20030;-42
2021/01/04 02:08:48;;;;;;;18.45;12.38;;;4.00;96.10;;;;;;5005342;28;20038;-43
2021/01/04 02:11:29;;;;;;;14.50;11.27;;;4.10;96.10;;;;;;5005658;28;20033;-43
2021/01/04 02:14:03;;;;;;;14.80;10.77;;;4.00;96.10;;;;;;5006064;28;20033;-43
2021/01/04 02:16:55;;;;;;;15.02;11.73;;;4.00;96.10;;;;;;5005229;28;20419;-43
2021/01/04 02:19:38;;;;;;;15.02;11.27;;;4.00;96.10;;;;;;5005487;28;20101;-43
2021/01/04 02:22:38;;;;;;;16.38;11.70;;;4.10;96.10;;;;;;5005844;28;20026;-43
2021/01/04 02:25:03;;;;;;;16.35;12.70;;;4.00;96.00;;;;;;5005318;28;20500;-43
2021/01/04 02:27:53;;;;;;;13.63;9.95;;;4.00;96.00;;;;;;5005522;28;20375;-43
2021/01/04 02:30:19;;;;;;;18.33;12.75;;;4.00;96.00;;;;;;5004414;28;20666;-42
2021/01/04 02:32:44;;;;;;;12.43;10.50;;;4.00;96.10;;;;;;5005665;28;20088;-42
2021/01/04 02:35:12;;;;;;;13.90;10.82;;;4.00;96.10;;;;;;5006021;28;20030;-42
2021/01/04 02:37:37;;;;;;;17.15;12.38;;;4.00;96.10;;;;;;5004883;28;20026;-43
2021/01/04 02:40:07;;;;;;;14.55;11.40;;;4.00;96.10;;;;;;5005829;28;20031;-43
2021/01/04 02:42:38;;;;;;;12.98;10.75;;;3.90;96.10;;;;;;5005456;28;20022;-41
2021/01/04 02:45:15;;;;;;;13.98;10.68;;;3.90;96.10;;;;;;5005243;28;20500;-42
2021/01/04 02:48:04;;;;;;;14.40;9.20;;;3.90;96.10;;;;;;5005375;28;20080;-42
2021/01/04 02:50:51;;;;;;;11.02;9.32;;;3.90;96.10;;;;;;4958830;28;20038;-43
2021/01/04 02:53:55;;;;;;;14.93;11.18;;;3.90;96.20;;;;;;5005018;28;20133;-42
2021/01/04 02:56:51;;;;;;;13.18;10.27;;;3.90;96.30;;;;;;5005882;28;20052;-43
2021/01/04 02:59:45;;;;;;;13.02;10.73;;;3.90;96.30;;;;;;4990850;28;20056;-44
2021/01/04 03:02:35;;;;;;;12.20;9.57;;;3.80;96.30;;;;;;5009165;28;20033;-44
2021/01/04 03:05:05;;;;;;;13.43;10.10;;;3.80;96.30;;;;;;5008895;28;20022;-43
2021/01/04 03:07:34;;;;;;;14.10;10.60;;;3.80;96.40;;;;;;5008760;28;20049;-42
2021/01/04 03:10:14;;;;;;;11.13;9.02;;;3.80;96.40;;;;;;5008839;28;20030;-43
2021/01/04 03:12:39;;;;;;;13.48;10.73;;;3.80;96.40;;;;;;5008915;28;20036;-42
2021/01/04 03:15:08;;;;;;;13.98;11.00;;;3.80;96.40;;;;;;5008986;28;20104;-42
2021/01/04 03:18:01;;;;;;;12.75;9.70;;;3.80;96.40;;;;;;5008332;28;20030;-43
2021/01/04 03:20:27;;;;;;;10.68;8.85;;;3.80;96.40;;;;;;5007760;28;20034;-43
2021/01/04 03:22:53;;;;;;;12.43;10.25;;;3.80;96.40;;;;;;5009106;28;20616;-43
2021/01/04 03:25:33;;;;;;;13.57;10.45;;;3.80;96.40;;;;;;5008253;28;20037;-42
2021/01/04 03:28:02;;;;;;;12.73;9.85;;;3.80;96.50;;;;;;5008453;28;20131;-43
2021/01/04 03:30:28;;;;;;;10.95;9.52;;;3.80;96.50;;;;;;5008174;28;20496;-43
2021/01/04 03:32:54;;;;;;;15.25;11.43;;;3.80;96.50;;;;;;5008607;28;20545;-43
2021/01/04 03:35:20;;;;;;;12.60;9.88;;;3.80;96.50;;;;;;5007557;28;20029;-43
2021/01/04 03:37:45;;;;;;;12.48;10.48;;;3.80;96.40;;;;;;5008673;28;20469;-41
2021/01/04 03:40:11;;;;;;;15.15;10.80;;;3.80;96.40;;;;;;5007939;28;20497;-43
2021/01/04 03:42:37;;;;;;;11.77;9.90;;;3.80;96.50;;;;;;5008166;28;20037;-42
2021/01/04 03:45:05;;;;;;;12.35;10.20;;;3.80;96.40;;;;;;5008259;28;20578;-42
2021/01/04 03:47:30;;;;;;;11.32;9.27;;;3.80;96.30;;;;;;5007366;28;20124;-42
2021/01/04 03:49:56;;;;;;;10.15;8.95;;;3.80;96.30;;;;;;5008047;28;20108;-42
2021/01/04 03:52:21;;;;;;;14.23;10.07;;;3.80;96.40;;;;;;5007616;28;20105;-43
2021/01/04 03:54:46;;;;;;;11.63;10.18;;;3.80;96.30;;;;;;5007906;28;20533;-43
2021/01/04 03:57:12;;;;;;;11.55;9.98;;;3.80;96.30;;;;;;5007944;28;20058;-43
2021/01/04 03:59:37;;;;;;;11.43;9.80;;;3.70;96.30;;;;;;5008094;28;20178;-43
2021/01/04 04:02:04;;;;;;;11.95;9.35;;;3.70;96.20;;;;;;5007813;28;20428;-43
2021/01/04 04:04:30;;;;;;;9.68;8.35;;;3.70;96.20;;;;;;5007222;28;20537;-42
2021/01/04 04:06:55;;;;;;;11.57;8.82;;;3.70;96.30;;;;;;5007758;28;20083;-45
2021/01/04 04:09:22;;;;;;;9.65;8.55;;;3.70;96.30;;;;;;5007398;28;20022;-43
2021/01/04 04:11:48;;;;;;;8.50;7.60;;;3.70;96.40;;;;;;5007755;28;20117;-43
2021/01/04 04:14:14;;;;;;;9.88;8.05;;;3.70;96.40;;;;;;5007144;28;20026;-43
2021/01/04 04:16:40;;;;;;;9.05;7.28;;;3.70;96.40;;;;;;5007312;28;20030;-42
2021/01/04 04:19:07;;;;;;;8.95;7.30;;;3.70;96.50;;;;;;5007467;28;20099;-43
2021/01/04 04:21:33;;;;;;;10.70;8.25;;;3.70;96.50;;;;;;5007069;28;20393;-43
2021/01/04 04:23:59;;;;;;;9.55;8.27;;;3.70;96.50;;;;;;5007611;28;20036;-43
2021/01/04 04:26:27;;;;;;;8.95;7.72;;;3.70;96.40;;;;;;5007129;28;20026;-43
2021/01/04 04:28:53;;;;;;;12.57;9.63;;;3.70;96.50;;;;;;5007381;28;20038;-42
2021/01/04 04:31:19;;;;;;;8.65;7.50;;;3.70;96.50;;;;;;5006371;28;20022;-43
2021/01/04 04:33:45;;;;;;;10.68;8.68;;;3.70;96.50;;;;;;5007974;28;20037;-43
2021/01/04 04:36:20;;;;;;;9.70;7.95;;;3.70;96.60;;;;;;5007198;28;20025;-43
2021/01/04 04:38:45;;;;;;;12.43;8.30;;;3.70;96.60;;;;;;5006847;28;20484;-43
2021/01/04 04:41:44;;;;;;;10.50;8.63;;;3.70;96.60;;;;;;5007299;28;20461;-43
2021/01/04 04:44:15;;;;;;;9.32;7.78;;;3.70;96.60;;;;;;4985446;28;20128;-43
2021/01/04 04:47:14;;;;;;;14.85;10.35;;;3.70;96.60;;;;;;5007162;28;20545;-44
2021/01/04 04:49:51;;;;;;;11.90;9.10;;;3.70;96.60;;;;;;5007103;28;20053;-42
2021/01/04 04:52:41;;;;;;;11.02;8.57;;;3.70;96.60;;;;;;5006375;28;20069;-42
2021/01/04 04:55:41;;;;;;;8.95;7.70;;;3.70;96.60;;;;;;5007228;28;20108;-42
2021/01/04 04:58:29;;;;;;;11.15;9.23;;;3.80;96.70;;;;;;5006773;28;20061;-43
2021/01/04 05:01:19;;;;;;;13.38;9.90;;;3.80;96.70;;;;;;5006326;28;20026;-43
2021/01/04 05:04:03;;;;;;;12.60;9.38;;;3.80;96.70;;;;;;5007120;28;20041;-43
2021/01/04 05:06:46;;;;;;;12.50;10.30;;;3.80;96.60;;;;;;5006505;28;20056;-43
2021/01/04 05:09:37;;;;;;;11.02;9.38;;;3.80;96.70;;;;;;5006413;28;20196;-42
2021/01/04 05:12:11;;;;;;;13.55;10.20;;;3.80;96.70;;;;;;5006479;28;20422;-43
2021/01/04 05:14:47;;;;;;;14.55;10.38;;;3.80;96.70;;;;;;5006427;28;20410;-43
2021/01/04 05:17:50;;;;;;;14.63;11.27;;;3.80;96.80;;;;;;5006063;28;20041;-44
2021/01/04 05:20:30;;;;;;;14.60;11.03;;;3.80;96.70;;;;;;5005473;28;20473;-43
2021/01/04 05:23:17;;;;;;;14.32;11.45;;;3.80;96.60;;;;;;5006878;28;20041;-43
2021/01/04 05:26:01;;;;;;;14.55;11.40;;;3.80;96.70;;;;;;5006194;28;20040;-43
2021/01/04 05:29:09;;;;;;;16.73;12.30;;;3.80;96.90;;;;;;5005907;28;20556;-43
2021/01/04 05:31:37;;;;;;;12.77;10.15;;;3.80;96.70;;;;;;5006329;28;20033;-43
2021/01/04 05:34:08;;;;;;;16.45;11.52;;;3.80;96.70;;;;;;5006171;28;20034;-43
2021/01/04 05:36:59;;;;;;;14.27;9.73;;;3.90;96.70;;;;;;5005945;28;20037;-43
2021/01/04 05:39:33;;;;;;;15.13;10.60;;;3.80;96.60;;;;;;5005608;28;20026;-43
2021/01/04 05:42:26;;;;;;;15.07;10.80;;;3.80;96.60;;;;;;5006219;28;20022;-43
2021/01/04 05:45:09;;;;;;;13.73;10.90;;;3.80;96.60;;;;;;5006645;28;20054;-43
2021/01/04 05:47:44;;;;;;;12.38;10.27;;;3.90;96.60;;;;;;5005458;28;20046;-43
2021/01/04 05:50:16;;;;;;;12.85;9.23;;;3.80;96.60;;;;;;5006165;28;20619;-43
2021/01/04 05:52:42;;;;;;;15.73;10.80;;;3.80;96.70;;;;;;5006623;28;20492;-43
2021/01/04 05:55:12;;;;;;;14.55;10.77;;;3.90;96.70;;;;;;5005844;28;20552;-43
2021/01/04 05:57:52;;;;;;;12.90;10.07;;;3.90;96.70;;;;;;5006274;28;20026;-43
2021/01/04 06:00:33;;;;;;;15.60;11.55;;;3.90;96.70;;;;;;5006027;28;20053;-42
2021/01/04 06:03:20;;;;;;;15.30;11.38;;;3.90;96.70;;;;;;5005915;28;20025;-42
2021/01/04 06:05:47;;;;;;;16.77;11.18;;;3.80;96.70;;;;;;5006479;28;20025;-40
2021/01/04 06:08:25;;;;;;;16.25;11.25;;;3.90;96.60;;;;;;5005342;28;20033;-43
2021/01/04 06:11:03;;;;;;;14.30;10.60;;;3.90;96.60;;;;;;5006580;28;20030;-44
2021/01/04 06:13:36;;;;;;;14.63;9.90;;;3.80;96.60;;;;;;5005372;28;20037;-43
2021/01/04 06:16:13;;;;;;;16.85;10.73;;;3.90;96.70;;;;;;5005995;28;20030;-42
2021/01/04 06:18:44;;;;;;;14.90;10.35;;;3.90;96.70;;;;;;5006387;28;20022;-43
2021/01/04 06:21:42;;;;;;;13.77;10.32;;;3.90;96.70;;;;;;5006324;28;20064;-44
2021/01/04 06:24:09;;;;;;;11.93;9.13;;;3.90;96.70;;;;;;4988596;28;20042;-43
2021/01/04 06:26:35;;;;;;;14.57;9.68;;;3.90;96.70;;;;;;5005877;28;20088;-43
2021/01/04 06:29:08;;;;;;;15.02;10.77;;;3.90;96.70;;;;;;5005747;28;20064;-43
2021/01/04 06:31:38;;;;;;;14.00;10.20;;;3.90;96.70;;;;;;5006626;28;20022;-43
2021/01/04 06:34:14;;;;;;;16.90;10.90;;;3.90;96.70;;;;;;5009658;28;20045;-43
2021/01/04 06:36:40;;;;;;;14.77;9.65;;;3.90;96.70;;;;;;5009244;28;20033;-43
2021/01/04 06:39:10;;;;;;;14.43;10.57;;;3.80;96.70;;;;;;5010099;28;20022;-43
2021/01/04 06:41:36;;;;;;;15.13;11.13;;;3.90;96.70;;;;;;5009746;28;20018;-42
2021/01/04 06:44:11;;;;;;;15.07;11.05;;;3.90;96.80;;;;;;5009259;28;20079;-44
2021/01/04 06:46:48;;;;;;;18.60;12.82;;;3.90;96.80;;;;;;5009539;28;20026;-42
2021/01/04 06:49:25;;;;;;;16.02;11.02;;;3.90;96.80;;;;;;5007981;28;20038;-43
2021/01/04 06:52:14;;;;;;;16.63;12.75;;;3.90;96.80;;;;;;5009235;28;20053;-42
2021/01/04 06:55:17;;;;;;;19.60;14.00;;;3.90;96.80;;;;;;5001444;28;20561;-42
2021/01/04 06:58:07;;;;;;;16.92;12.93;;;3.90;96.80;;;;;;5002569;28;20732;-43
2021/01/04 07:00:54;;;;;;;23.25;14.88;;;3.90;96.80;;;;;;4988612;28;20307;-43
2021/01/04 07:03:32;;;;;;;17.88;13.07;;;3.90;96.70;;;;;;5007975;28;20281;-43
2021/01/04 07:05:57;;;;;;;21.13;15.20;;;3.90;96.70;;;;;;5008293;28;20022;-43
2021/01/04 07:08:32;;;;;;;19.58;13.88;;;3.80;96.80;;;;;;5007853;28;20041;-43
2021/01/04 07:11:19;;;;;;;22.15;15.95;;;3.90;96.80;;;;;;5009096;28;20053;-42
2021/01/04 07:14:09;;;;;;;23.45;14.45;;;3.80;96.80;;;;;;5008831;28;20057;-41
2021/01/04 07:17:13;;;;;;;19.15;14.25;;;3.90;96.70;;;;;;5008830;28;20034;-44
2021/01/04 07:19:47;;;;;;;19.00;13.52;;;3.80;96.70;;;;;;4997082;28;20418;-43
2021/01/04 07:22:42;;;;;;;20.33;14.57;;;3.80;96.70;;;;;;5007072;28;20117;-43
2021/01/04 07:25:32;;;;;;;22.23;13.90;;;3.80;96.70;;;;;;5009258;28;20523;-44
2021/01/04 07:28:35;;;;;;;20.02;13.52;;;3.80;96.70;;;;;;5008495;28;20100;-43
2021/01/04 07:31:05;;;;;;;18.30;12.27;;;3.80;96.70;;;;;;4989471;28;20045;-44
2021/01/04 07:34:06;;;;;;;20.00;12.75;;;3.80;96.70;;;;;;4988302;28;20027;-42
2021/01/04 07:36:55;;;;;;;21.27;13.25;;;3.80;96.80;;;;;;4944468;28;20603;-43
2021/01/04 07:39:42;;;;;;;16.48;11.63;;;3.80;96.80;;;;;;4988471;28;20026;-43
2021/01/04 07:42:37;;;;;;;15.93;11.50;;;3.90;96.80;;;;;;4988968;28;20109;-44
2021/01/04 07:45:22;;;;;;;18.63;12.77;;;3.80;96.70;;;;;;4989249;28;20050;-44
2021/01/04 07:48:22;;;;;;;15.45;11.45;;;3.90;96.70;;;;;;5000671;28;20041;-42
2021/01/04 07:51:08;;;;;;;14.57;10.32;;;3.80;96.60;;;;;;5008056;28;20029;-43
2021/01/04 07:54:12;;;;;;;20.55;12.52;;;3.80;96.70;;;;;;5007854;28;20030;-43
2021/01/04 07:56:57;;;;;;;;;;;3.90;96.80;;;;;;4955957;28;20144;-43
2021/01/04 07:59:52;;;;;;;17.45;11.93;;;3.80;96.70;;;;;;5007977;28;19949;-43
2021/01/04 08:02:31;;;;;;;18.83;12.98;;;3.80;96.80;;;;;;5007165;28;20046;-43
2021/01/04 08:05:15;;;;;;;19.25;13.10;;;3.90;96.80;;;;;;4990958;28;20109;-42
2021/01/04 08:08:08;;;;;;;18.92;12.68;;;3.90;96.70;;;;;;4987890;28;20035;-43
2021/01/04 08:11:30;;;;;;;18.63;13.10;;;3.90;96.80;;;;;;4988415;28;20030;-43
2021/01/04 08:14:10;;;;;;;17.80;12.30;;;3.90;96.80;;;;;;4909073;29;20028;-43
2021/01/04 08:16:48;;;;;;;18.35;12.85;;;3.90;96.80;;;;;;4908096;29;20086;-43
2021/01/04 08:19:16;;;;;;;15.10;10.32;;;3.90;96.80;;;;;;4968995;28;20125;-42
2021/01/04 08:22:28;;;;;;;17.67;12.55;;;3.90;96.80;;;;;;4987884;28;20082;-43
2021/01/04 08:25:08;;;;;;;16.80;11.73;;;3.90;96.80;;;;;;4988230;28;20032;-42
2021/01/04 08:28:07;;;;;;;17.42;12.60;;;3.90;96.80;;;;;;4987368;28;20042;-43
2021/01/04 08:30:43;;;;;;;22.35;13.80;;;4.00;96.80;;;;;;4986808;28;20517;-43
2021/01/04 08:33:11;;;;;;;15.18;11.70;;;4.00;96.80;;;;;;4987803;28;20516;-43
2021/01/04 08:35:42;;;;;;;21.10;13.20;;;4.00;96.80;;;;;;4987633;28;20037;-42
2021/01/04 08:38:20;;;;;;;19.90;13.88;;;4.00;96.80;;;;;;4988440;28;20096;-42
2021/01/04 08:41:06;;;;;;;16.65;12.20;;;4.00;96.80;;;;;;4988728;28;20121;-45
2021/01/04 08:43:40;;;;;;;18.23;12.65;;;4.00;96.80;;;;;;4987547;28;20046;-43
2021/01/04 08:46:21;;;;;;;18.27;13.10;;;4.10;96.80;;;;;;4988560;28;20015;-42
2021/01/04 08:48:48;;;;;;;19.85;13.00;;;4.10;96.90;;;;;;4988365;28;20038;-43
2021/01/04 08:51:28;;;;;;;21.88;15.75;;;4.00;96.80;;;;;;4986751;28;20050;-42
2021/01/04 08:54:19;;;;;;;21.08;14.02;;;4.10;96.90;;;;;;4987022;28;20611;-43
2021/01/04 08:57:11;;;;;;;19.80;13.70;;;4.10;96.90;;;;;;4987577;28;20102;-43
2021/01/04 08:59:37;;;;;;;20.07;13.47;;;4.10;96.80;;;;;;4988242;28;20629;-43
2021/01/04 09:02:14;;;;;;;21.02;13.32;;;4.10;96.80;;;;;;4988068;28;20280;-42
2021/01/04 09:04:41;;;;;;;18.67;12.45;;;4.00;96.80;;;;;;4987887;28;20030;-44
2021/01/04 09:07:15;;;;;;;19.40;13.15;;;4.00;96.80;;;;;;4987463;28;20027;-43
2021/01/04 09:09:54;;;;;;;17.40;13.15;;;4.10;96.90;;;;;;4980993;28;20041;-42
2021/01/04 09:12:36;;;;;;;22.77;13.43;;;4.10;96.90;;;;;;4974920;28;20049;-42
2021/01/04 09:15:13;;;;;;;21.50;13.20;;;4.10;96.90;;;;;;4994548;28;20029;-31
2021/01/04 09:17:42;;;;;;;21.63;13.32;;;4.10;96.90;;;;;;4993450;28;20038;-32
2021/01/04 09:20:13;;;;;;;21.75;12.98;;;4.10;96.90;;;;;;4995523;28;20095;-43
2021/01/04 09:22:39;;;;;;;16.88;11.95;;;4.10;96.90;;;;;;4994901;28;20030;-44
2021/01/04 09:25:17;;;;;;;18.75;12.00;;;4.00;96.90;;;;;;4992209;28;20371;-44
2021/01/04 09:27:47;;;;;;;20.60;13.77;;;4.10;97.00;;;;;;4987969;28;20049;-42
2021/01/04 09:30:22;;;;;;;19.60;13.35;;;4.10;97.00;;;;;;4991867;28;20026;-43
2021/01/04 09:32:48;;;;;;;18.33;12.23;;;4.10;97.00;;;;;;4995547;28;20023;-43
2021/01/04 09:35:24;;;;;;;16.08;11.77;;;4.10;96.90;;;;;;4996455;28;20033;-43
2021/01/04 09:37:59;;;;;;;18.75;12.00;;;4.10;96.90;;;;;;4987820;28;20041;-43
2021/01/04 09:40:24;;;;;;;20.38;12.60;;;4.10;97.00;;;;;;4986751;28;20029;-42
2021/01/04 09:42:51;;;;;;;16.75;11.85;;;4.20;97.00;;;;;;4987571;28;20046;-43
2021/01/04 09:45:20;;;;;;;16.30;11.25;;;4.20;97.10;;;;;;4994361;28;20032;-43
2021/01/04 09:47:53;;;;;;;19.25;12.30;;;4.20;97.10;;;;;;5006808;28;20112;-43
2021/01/04 09:50:29;;;;;;;18.65;12.10;;;4.30;97.10;;;;;;4993511;28;20042;-42
2021/01/04 09:53:20;;;;;;;17.42;12.13;;;4.30;96.90;;;;;;4989879;28;20026;-43
2021/01/04 09:55:46;;;;;;;14.90;11.90;;;4.30;96.80;;;;;;5005478;28;20030;-43
2021/01/04 09:58:11;;;;;;;18.42;12.55;;;4.40;96.80;;;;;;4995227;28;20500;-43
2021/01/04 10:00:39;;;;;;;17.63;11.50;;;4.40;96.90;;;;;;4986367;28;20034;-43
2021/01/04 10:03:10;;;;;;;19.42;12.35;;;4.40;96.80;;;;;;4987560;28;20026;-44
2021/01/04 10:05:42;;;;;;;18.88;11.60;;;4.40;96.80;;;;;;4987764;28;20057;-43
2021/01/04 10:08:23;;;;;;;20.48;13.27;;;4.40;96.80;;;;;;4990492;28;20104;-45
2021/01/04 10:11:01;;;;;;;15.13;11.73;;;4.50;96.80;;;;;;4990817;28;20799;-43
2021/01/04 10:13:30;;;;;;;22.85;13.15;;;4.50;96.70;;;;;;4989899;28;20338;-44
2021/01/04 10:15:58;;;;;;;16.05;11.02;;;4.60;96.60;;;;;;4990348;28;20501;-43
2021/01/04 10:18:55;;;;;;;13.52;10.18;;;4.60;96.60;;;;;;4988363;28;20022;-42
2021/01/04 10:21:26;;;;;;;17.40;12.00;;;4.60;96.60;;;;;;5003129;28;20030;-43
2021/01/04 10:23:57;;;;;;;18.98;11.90;;;4.60;96.40;;;;;;5009847;28;20032;-43
2021/01/04 10:26:23;;;;;;;17.00;11.07;;;4.60;96.50;;;;;;5009531;28;20026;-44
2021/01/04 10:28:49;;;;;;;17.20;11.00;;;4.60;96.30;;;;;;5010007;28;20366;-43
2021/01/04 10:31:14;;;;;;;18.85;11.43;;;4.60;96.30;;;;;;5009420;28;20089;-42
2021/01/04 10:33:41;;;;;;;18.63;11.02;;;4.50;96.30;;;;;;5009900;28;20038;-43
2021/01/04 10:36:12;;;;;;;11.77;9.93;;;4.60;96.40;;;;;;5009571;28;20049;-43
2021/01/04 10:38:40;;;;;;;12.98;10.25;;;4.60;96.30;;;;;;5010285;28;20036;-43
2021/01/04 10:41:10;;;;;;;13.15;9.93;;;4.50;96.40;;;;;;5004708;28;20034;-43
2021/01/04 10:43:36;;;;;;;16.98;10.00;;;4.60;96.40;;;;;;5001975;28;20034;-43
2021/01/04 10:46:32;;;;;;;14.52;10.10;;;4.60;96.30;;;;;;5010225;28;20030;-43
2021/01/04 10:49:10;;;;;;;12.32;9.48;;;4.60;96.20;;;;;;5005593;28;20041;-43
2021/01/04 10:51:39;;;;;;;12.43;9.43;;;4.60;96.10;;;;;;4998117;28;20386;-43
2021/01/04 10:54:16;;;;;;;15.02;9.43;;;4.50;96.20;;;;;;5000871;28;20663;-43
2021/01/04 10:56:52;;;;;;;12.38;8.55;;;4.50;96.30;;;;;;4998989;28;20395;-42
2021/01/04 10:59:23;;;;;;;13.13;9.05;;;4.50;96.40;;;;;;4991882;28;20486;-42
2021/01/04 11:01:50;;;;;;;12.38;9.55;;;4.50;96.30;;;;;;4990373;28;20448;-42
2021/01/04 11:04:18;;;;;;;14.45;9.63;;;4.50;96.30;;;;;;4988795;28;20027;-44
2021/01/04 11:06:47;;;;;;;10.95;8.43;;;4.50;96.20;;;;;;4998167;28;20447;-42
2021/01/04 11:09:34;;;;;;;14.55;8.88;;;4.40;96.10;;;;;;4998158;28;20022;-42
2021/01/04 11:12:26;;;;;;;15.20;9.13;;;4.40;96.20;;;;;;4999984;28;20555;-43
2021/01/04 11:15:03;;;;;;;11.90;8.85;;;4.30;96.30;;;;;;4954118;28;20038;-43
2021/01/04 11:17:33;;;;;;;12.43;8.43;;;4.30;96.30;;;;;;4987505;28;20164;-44
2021/01/04 11:20:16;;;;;;;13.52;9.43;;;4.30;96.40;;;;;;4989348;28;20034;-42
2021/01/04 11:22:43;;;;;;;11.18;7.65;;;4.40;96.40;;;;;;4988432;28;20129;-42
2021/01/04 11:25:12;;;;;;;11.02;8.25;;;4.40;96.50;;;;;;4988854;28;20063;-43
2021/01/04 11:27:38;;;;;;;10.88;7.82;;;4.30;96.40;;;;;;4989520;28;20065;-44
2021/01/04 11:30:07;;;;;;;11.35;8.30;;;4.30;96.50;;;;;;4989302;28;20061;-43
2021/01/04 11:32:33;;;;;;;10.77;7.50;;;4.30;96.40;;;;;;4992962;28;20367;-43
2021/01/04 11:35:01;;;;;;;11.82;7.57;;;4.40;96.50;;;;;;4997227;28;20145;-43
2021/01/04 11:37:28;;;;;;;9.10;6.97;;;4.30;96.50;;;;;;4997099;28;20061;-44
2021/01/04 11:39:54;;;;;;;13.32;7.72;;;4.40;96.50;;;;;;4997782;28;20032;-41
2021/01/04 11:42:20;;;;;;;10.55;7.90;;;4.30;96.40;;;;;;5007482;28;20029;-43
2021/01/04 11:44:46;;;;;;;9.90;6.97;;;4.30;96.40;;;;;;5008331;28;20037;-44
2021/01/04 11:47:11;;;;;;;10.40;7.57;;;4.30;96.40;;;;;;5007980;28;20075;-43
2021/01/04 11:49:37;;;;;;;10.90;7.97;;;4.40;96.40;;;;;;5005564;28;20038;-43
2021/01/04 11:52:03;;;;;;;9.80;7.60;;;4.40;96.30;;;;;;4997497;28;20634;-44
2021/01/04 11:54:29;;;;;;;10.27;7.80;;;4.40;96.20;;;;;;4997361;28;20371;-43
2021/01/04 11:56:55;;;;;;;12.43;8.50;;;4.40;96.20;;;;;;5007571;28;20048;-42
2021/01/04 11:59:20;;;;;;;10.48;7.55;;;4.30;96.00;;;;;;5007692;28;20022;-43
2021/01/04 12:01:46;;;;;;;13.18;9.18;;;4.30;96.10;;;;;;5007765;28;20029;-42
2021/01/04 12:04:12;;;;;;;13.32;8.68;;;4.30;96.20;;;;;;5008231;28;20045;-45
2021/01/04 12:06:37;;;;;;;10.68;8.25;;;4.30;96.20;;;;;;5006092;28;20453;-43
2021/01/04 12:09:05;;;;;;;11.48;8.60;;;4.30;96.20;;;;;;5002212;28;20026;-43
2021/01/04 12:11:33;;;;;;;10.43;8.57;;;4.30;96.10;;;;;;4992306;28;20056;-43
2021/01/04 12:13:58;;;;;;;10.90;8.35;;;4.30;96.00;;;;;;4988505;28;20069;-44
2021/01/04 12:16:26;;;;;;;10.65;8.38;;;4.30;96.00;;;;;;4988295;28;20382;-43
2021/01/04 12:18:51;;;;;;;15.65;9.75;;;4.30;96.10;;;;;;4996708;28;20022;-42
2021/01/04 12:21:21;;;;;;;8.55;7.28;;;4.30;96.00;;;;;;4996880;28;20031;-43
2021/01/04 12:23:47;;;;;;;14.00;8.30;;;4.30;96.00;;;;;;4997235;28;20031;-43
2021/01/04 12:26:12;;;;;;;13.10;7.70;;;4.40;95.90;;;;;;4991152;28;20547;-44
2021/01/04 12:28:38;;;;;;;9.20;7.25;;;4.30;95.70;;;;;;4987736;28;20041;-42
2021/01/04 12:31:05;;;;;;;8.93;7.20;;;4.30;95.70;;;;;;4988974;28;20081;-43
2021/01/04 12:33:30;;;;;;;8.93;6.88;;;4.30;95.60;;;;;;4991906;28;20228;-43
2021/01/04 12:35:56;;;;;;;8.95;6.95;;;4.30;95.60;;;;;;4994608;28;20026;-42
2021/01/04 12:38:21;;;;;;;9.75;7.32;;;4.40;95.60;;;;;;4997288;28;20033;-44
2021/01/04 12:40:47;;;;;;;9.95;6.50;;;4.40;95.50;;;;;;4998056;28;20018;-43
2021/01/04 12:43:12;;;;;;;12.15;7.28;;;4.40;95.40;;;;;;5001225;28;20162;-43
2021/01/04 12:45:39;;;;;;;11.18;7.47;;;4.40;95.50;;;;;;4998259;28;20120;-43
2021/01/04 12:48:05;;;;;;;7.53;6.28;;;4.40;95.50;;;;;;4990429;28;20120;-43
2021/01/04 12:50:30;;;;;;;10.25;7.40;;;4.40;95.50;;;;;;4987142;28;20068;-42
2021/01/04 12:52:56;;;;;;;7.85;6.95;;;4.40;95.30;;;;;;4987735;28;20477;-42
2021/01/04 12:55:23;;;;;;;9.13;6.97;;;4.40;95.20;;;;;;4992382;28;20844;-44
2021/01/04 12:57:48;;;;;;;9.20;6.40;;;4.40;95.30;;;;;;4996067;28;20046;-43
2021/01/04 13:00:23;;;;;;;7.20;6.13;;;4.40;95.30;;;;;;4996530;28;20464;-43
2021/01/04 13:02:52;;;;;;;10.35;6.40;;;4.40;95.00;;;;;;4994889;28;20042;-43
2021/01/04 13:05:18;;;;;;;8.50;6.30;;;4.40;95.00;;;;;;4994722;28;20050;-42
2021/01/04 13:07:44;;;;;;;9.40;6.60;;;4.40;95.10;;;;;;4994294;28;20077;-43
2021/01/04 13:10:10;;;;;;;9.57;6.20;;;4.40;95.10;;;;;;4989303;28;20057;-44
2021/01/04 13:12:37;;;;;;;7.75;6.07;;;4.40;94.90;;;;;;5005653;28;20036;-42
2021/01/04 13:15:07;;;;;;;7.78;6.00;;;4.30;95.00;;;;;;5007314;28;20026;-43
2021/01/04 13:17:33;;;;;;;9.45;6.75;;;4.30;95.00;;;;;;5005793;28;20053;-43
2021/01/04 13:19:59;;;;;;;9.75;7.38;;;4.30;95.00;;;;;;5007508;28;20037;-42
2021/01/04 13:22:26;;;;;;;10.00;6.05;;;4.30;95.00;;;;;;5006426;28;20075;-41
2021/01/04 13:24:56;;;;;;;9.52;5.90;;;4.30;94.70;;;;;;5004476;28;20030;-44
2021/01/04 13:27:22;;;;;;;9.32;7.38;;;4.30;94.80;;;;;;5006578;28;20113;-44
2021/01/04 13:29:47;;;;;;;9.43;6.47;;;4.30;94.70;;;;;;5006921;28;20026;-43
2021/01/04 13:32:13;;;;;;;6.40;5.80;;;4.30;94.80;;;;;;5006484;28;20049;-43